Currently 66°F in Temecula, California, USA
66°F
73°F / 60°F
5 mph S
0.00"
Thursday, October 19, 2017 6:36 PM PDT

Temecula, California Weather Summary
Last 36 Hours

Temperature Winds Hourly Humidity Dewpoint
Time Report Norm Report Norm Max Gusts Precip. Rpt. Norm Rpt. Norm Pressure
1Thu 06:36 PM  66.2°F  70°F  5 mph S  3 mph  5 mph  0.00"  84%  59%  61°F  55°F  29.93"
Thu 06:00 PM  67.7°F  73°F  4 mph SW  4 mph  10 mph  0.00"  81%  55%  61°F  55°F  29.93"
Thu 05:00 PM  69.9°F  77°F  4 mph SW  6 mph  14 mph  0.00"  75%  48%  61°F  55°F  29.91"
Thu 04:00 PM  71.8°F  80°F  4 mph SW  7 mph  12 mph  0.00"  68%  44%  60°F  55°F  29.92"
Thu 03:00 PM  72.8°F  81°F  7 mph SW  7 mph  14 mph  0.00"  63%  42%  59°F  55°F  29.91"
2Thu 02:38 PM  73.3°F  81°F  9 mph SW  7 mph  14 mph  ----  62%  41%  59°F  54°F  29.91"
Thu 02:00 PM  72.7°F  81°F  6 mph W  6 mph  15 mph  0.00"  64%  41%  59°F  54°F  29.91"
Thu 01:00 PM  72.8°F  79°F  8 mph W  5 mph  15 mph  0.00"  63%  44%  59°F  54°F  29.94"
Thu 12:00 PM  71.9°F  75°F  8 mph SW  4 mph  11 mph  0.00"  66%  49%  60°F  54°F  29.96"
Thu 11:00 AM  72.3°F  70°F  6 mph SW  2 mph  11 mph  0.00"  62%  59%  58°F  55°F  29.97"
Thu 10:00 AM  65.8°F  64°F  calm  2 mph  4 mph  0.00"  81%  70%  60°F  54°F  29.98"
Thu 09:00 AM  61.9°F  58°F  calm  1 mph  4 mph  0.00"  92%  81%  59°F  52°F  29.99"
Thu 08:00 AM  60.8°F  55°F  1 mph NE  1 mph  none  0.00"  95%  86%  59°F  51°F  29.98"
Thu 07:00 AM  60.4°F  55°F  calm  1 mph  4 mph  0.00"  96%  86%  59°F  51°F  29.98"
3Thu 06:40 AM  59.6°F  55°F  calm  1 mph  4 mph  ----  96%  86%  58°F  51°F  29.98"
Thu 06:00 AM  60.7°F  55°F  1 mph NE  1 mph  3 mph  0.00"  96%  85%  60°F  51°F  29.98"
Thu 05:00 AM  60.7°F  56°F  calm  1 mph  2 mph  0.00"  96%  84%  59°F  51°F  29.97"
Thu 04:00 AM  60.3°F  57°F  calm  1 mph  3 mph  0.00"  94%  83%  59°F  51°F  29.96"
Thu 03:00 AM  61.6°F  57°F  calm  1 mph  3 mph  0.00"  91%  82%  59°F  52°F  29.97"
Thu 02:00 AM  62.9°F  58°F  calm  1 mph  5 mph  0.00"  88%  81%  59°F  52°F  29.97"
Thu 01:00 AM  62.5°F  59°F  calm  1 mph  none  0.00"  84%  79%  57°F  53°F  29.98"
Thu 12:00 AM  64.0°F  60°F  calm  1 mph  none  0.00"  82%  78%  58°F  53°F  29.97"
Wed 11:00 PM  65.8°F  61°F  calm  1 mph  3 mph  0.00"  82%  76%  60°F  53°F  29.99"
Wed 10:00 PM  67.8°F  63°F  calm  1 mph  5 mph  0.00"  83%  74%  62°F  54°F  29.99"
Wed 09:00 PM  69.1°F  64°F  calm  2 mph  7 mph  0.00"  76%  71%  61°F  54°F  29.98"
Wed 08:00 PM  71.7°F  66°F  1 mph S  2 mph  7 mph  0.00"  69%  67%  60°F  55°F  29.98"
Wed 07:00 PM  74.8°F  69°F  3 mph S  3 mph  8 mph  0.00"  58%  62%  58°F  55°F  29.96"
Wed 06:00 PM  77.7°F  73°F  3 mph SW  5 mph  12 mph  0.00"  51%  55%  58°F  55°F  29.95"
Wed 05:00 PM  79.9°F  77°F  2 mph SW  6 mph  11 mph  0.00"  47%  48%  57°F  55°F  29.94"
Wed 04:00 PM  81.5°F  80°F  4 mph W  7 mph  17 mph  0.00"  45%  43%  57°F  55°F  29.94"
Wed 03:00 PM  84.0°F  81°F  7 mph SW  7 mph  14 mph  0.00"  39%  41%  56°F  55°F  29.93"
Wed 02:00 PM  86.8°F  81°F  6 mph SW  6 mph  18 mph  0.00"  35%  41%  55°F  54°F  29.95"
Wed 01:00 PM  84.8°F  79°F  7 mph SW  5 mph  17 mph  0.00"  33%  43%  51°F  54°F  29.98"
Wed 12:00 PM  83.4°F  76°F  8 mph SW  4 mph  14 mph  0.00"  31%  49%  49°F  54°F  30.02"
Wed 11:00 AM  83.1°F  70°F  4 mph SW  3 mph  14 mph  0.00"  27%  59%  44°F  55°F  30.02"
Wed 10:00 AM  74.0°F  64°F  calm  2 mph  5 mph  0.00"  40%  70%  47°F  54°F  30.02"
Wed 09:00 AM  64.0°F  58°F  calm  1 mph  none  0.00"  53%  82%  46°F  52°F  30.04"
Wed 08:00 AM  60.7°F  55°F  calm  1 mph  4 mph  0.00"  64%  86%  48°F  51°F  30.03"
Wed 07:00 AM  60.1°F  55°F  2 mph E  1 mph  3 mph  0.00"  62%  87%  46°F  51°F  30.02"

  1. Current weather data. No green row appears if the current weather data is also the high or low for the current day.
  2. High temperature for the current day.
  3. Low temperature for the current day.

The Temecula weather pages are a service of WeatherCurrents. Temecula, California is located in the Temecula Valley, in southwestern Riverside County, along the Interstate 15 highway. The Temecula Valley's rolling hills are home to the Temecula wine country, vineyards, golf courses, a casino resort, and Old Town Temecula.
Copyright ©Thu Oct 19 18:36:41 PDT 2017  WeatherCurrents. All rights reserved. - Submit questions and comments - Privacy Policy

This page automatically refreshes every 10 minutes.